createdAt,value
2017-09-21T00:02:17.979Z,5.57
2017-09-21T00:04:44.917Z,6.70
2017-09-21T00:07:11.125Z,6.47
2017-09-21T00:09:37.307Z,6.40
2017-09-21T00:12:03.476Z,5.70
2017-09-21T00:14:29.638Z,5.37
2017-09-21T00:16:56.182Z,8.87
2017-09-21T00:19:22.378Z,5.50
2017-09-21T00:21:48.574Z,4.60
2017-09-21T00:24:14.762Z,4.73
2017-09-21T00:26:40.906Z,12.80
2017-09-21T00:29:07.935Z,5.93
2017-09-21T00:31:34.402Z,6.30
2017-09-21T00:34:00.573Z,7.60
2017-09-21T00:36:27.748Z,7.47
2017-09-21T00:38:54.033Z,5.00
2017-09-21T00:41:20.190Z,5.20
2017-09-21T00:43:47.114Z,6.50
2017-09-21T00:46:13.298Z,4.83
2017-09-21T00:48:39.857Z,4.87
2017-09-21T00:51:06.428Z,5.83
2017-09-21T00:53:32.850Z,5.03
2017-09-21T00:55:59.707Z,5.00
2017-09-21T00:58:25.948Z,6.30
2017-09-21T01:00:52.154Z,5.60
2017-09-21T01:03:18.723Z,6.83
2017-09-21T01:05:45.005Z,5.30
2017-09-21T01:08:11.210Z,4.90
2017-09-21T01:10:37.393Z,4.70
2017-09-21T01:13:03.586Z,6.30
2017-09-21T01:15:30.599Z,4.50
2017-09-21T01:17:56.782Z,4.77
2017-09-21T01:20:24.176Z,5.50
2017-09-21T01:22:50.357Z,5.40
2017-09-21T01:25:16.553Z,6.27
2017-09-21T01:27:42.815Z,5.60
2017-09-21T01:30:09.763Z,4.97
2017-09-21T01:32:35.971Z,5.33
2017-09-21T01:35:02.166Z,10.47
2017-09-21T01:37:29.397Z,8.37
2017-09-21T01:39:55.707Z,4.83
2017-09-21T01:42:21.929Z,7.50
2017-09-21T01:44:48.147Z,5.93
2017-09-21T01:47:14.432Z,6.37
2017-09-21T01:49:40.715Z,10.37
2017-09-21T01:52:06.994Z,5.50
2017-09-21T01:54:33.981Z,5.60
2017-09-21T01:57:00.462Z,11.30
2017-09-21T01:59:26.663Z,6.43
2017-09-21T02:01:52.895Z,7.07
2017-09-21T02:04:19.102Z,7.13
2017-09-21T02:06:45.658Z,8.30
2017-09-21T02:09:12.394Z,5.20
2017-09-21T02:11:38.693Z,4.77
2017-09-21T02:14:05.254Z,4.60
2017-09-21T02:16:31.470Z,4.07
2017-09-21T02:18:57.693Z,6.50
2017-09-21T02:21:23.908Z,6.17
2017-09-21T02:23:50.113Z,5.97
2017-09-21T02:26:16.302Z,5.10
2017-09-21T02:28:43.736Z,6.20
2017-09-21T02:31:09.945Z,5.10
2017-09-21T02:33:36.104Z,5.07
2017-09-21T02:36:02.355Z,8.07
2017-09-21T02:38:28.880Z,5.70
2017-09-21T02:40:55.042Z,6.33
2017-09-21T02:43:21.567Z,6.03
2017-09-21T02:45:47.802Z,5.70
2017-09-21T02:48:13.989Z,7.17
2017-09-21T02:50:40.900Z,6.70
2017-09-21T02:53:07.930Z,11.20
2017-09-21T02:55:34.445Z,7.50
2017-09-21T02:58:00.592Z,6.67
2017-09-21T03:00:27.171Z,7.77
2017-09-21T03:02:54.091Z,10.17
2017-09-21T03:05:20.282Z,7.43
2017-09-21T03:07:46.439Z,6.20
2017-09-21T03:10:13.039Z,7.10
2017-09-21T03:12:39.939Z,6.47
2017-09-21T03:15:06.119Z,6.13
2017-09-21T03:17:32.319Z,7.10
2017-09-21T03:19:58.868Z,6.80
2017-09-21T03:22:25.050Z,7.53
2017-09-21T03:24:51.220Z,8.60
2017-09-21T03:27:17.413Z,7.57
2017-09-21T03:29:43.612Z,7.83
2017-09-21T03:32:09.755Z,7.50
2017-09-21T03:34:35.950Z,7.00
2017-09-21T03:37:02.125Z,9.90
2017-09-21T03:39:29.039Z,11.73
2017-09-21T03:41:55.194Z,10.90
2017-09-21T03:44:21.768Z,5.50
2017-09-21T03:46:48.006Z,7.30
2017-09-21T03:49:14.164Z,6.23
2017-09-21T03:51:40.378Z,7.97
2017-09-21T03:54:06.575Z,4.43
2017-09-21T03:56:32.758Z,7.97
2017-09-21T03:58:58.980Z,7.70
2017-09-21T04:01:25.119Z,7.63
2017-09-21T04:03:52.055Z,5.73
2017-09-21T04:06:18.954Z,6.30
2017-09-21T04:08:45.115Z,7.20
2017-09-21T04:11:11.289Z,13.33
2017-09-21T04:13:37.505Z,5.27
2017-09-21T04:16:03.706Z,6.23
2017-09-21T04:18:29.934Z,6.70
2017-09-21T04:20:56.108Z,6.17
2017-09-21T04:23:22.345Z,7.77
2017-09-21T04:25:48.972Z,7.67
2017-09-21T04:28:15.160Z,6.43
2017-09-21T04:30:41.346Z,9.87
2017-09-21T04:33:07.524Z,11.93
2017-09-21T04:35:33.705Z,9.07
2017-09-21T04:37:59.909Z,7.47
2017-09-21T04:40:26.160Z,7.20
2017-09-21T04:42:52.365Z,7.80
2017-09-21T04:45:18.552Z,9.63
2017-09-21T04:47:44.714Z,11.90
2017-09-21T04:50:11.283Z,9.07
2017-09-21T04:52:37.799Z,10.60
2017-09-21T04:55:04.026Z,7.83
2017-09-21T04:57:30.206Z,8.80
2017-09-21T04:59:56.468Z,7.83
2017-09-21T05:02:22.725Z,6.67
2017-09-21T05:04:48.879Z,10.03
2017-09-21T05:07:15.044Z,7.27
2017-09-21T05:09:41.307Z,8.13
2017-09-21T05:12:07.886Z,10.83
2017-09-21T05:14:34.076Z,11.67
2017-09-21T05:17:01.055Z,9.03
2017-09-21T05:19:27.321Z,14.93
2017-09-21T05:21:53.499Z,8.07
2017-09-21T05:24:19.679Z,9.53
2017-09-21T05:26:45.850Z,10.47
2017-09-21T05:29:12.455Z,8.47
2017-09-21T05:31:38.635Z,10.37
2017-09-21T05:34:04.887Z,8.07
2017-09-21T05:36:31.136Z,7.10
2017-09-21T05:38:57.690Z,9.20
2017-09-21T05:41:23.919Z,8.57
2017-09-21T05:43:50.502Z,9.63
2017-09-21T05:46:17.470Z,15.33
2017-09-21T05:48:43.696Z,18.63
2017-09-21T05:51:10.643Z,22.67
2017-09-21T05:53:36.800Z,19.37
2017-09-21T05:56:02.972Z,15.80
2017-09-21T05:58:29.105Z,12.17
2017-09-21T06:00:55.325Z,19.33
2017-09-21T06:03:21.495Z,11.50
2017-09-21T06:05:47.651Z,16.20
2017-09-21T06:08:14.607Z,10.67
2017-09-21T06:10:40.786Z,10.33
2017-09-21T06:13:06.934Z,11.00
2017-09-21T06:15:33.094Z,11.07
2017-09-21T06:17:59.291Z,10.00
2017-09-21T06:20:25.476Z,14.17
2017-09-21T06:22:51.620Z,13.37
2017-09-21T06:25:17.777Z,14.63
2017-09-21T06:27:44.311Z,12.50
2017-09-21T06:30:10.474Z,12.40
2017-09-21T06:32:36.657Z,11.60
2017-09-21T06:35:02.819Z,18.80
2017-09-21T06:37:29.023Z,11.80
2017-09-21T06:39:55.399Z,14.57
2017-09-21T06:42:21.614Z,11.23
2017-09-21T06:44:47.794Z,17.93
2017-09-21T06:47:13.994Z,13.07
2017-09-21T06:49:40.886Z,14.07
2017-09-21T06:52:07.064Z,15.40
2017-09-21T06:54:33.288Z,13.50
2017-09-21T06:56:59.472Z,16.30
2017-09-21T06:59:25.622Z,26.40
2017-09-21T07:01:51.794Z,18.23
2017-09-21T07:04:17.969Z,14.37
2017-09-21T07:06:44.136Z,14.67
2017-09-21T07:09:10.306Z,13.10
2017-09-21T07:11:36.513Z,15.33
2017-09-21T07:14:02.714Z,11.73
2017-09-21T07:16:28.874Z,13.07
2017-09-21T07:18:55.032Z,13.40
2017-09-21T07:21:21.195Z,15.77
2017-09-21T07:23:47.379Z,14.57
2017-09-21T07:26:14.303Z,13.40
2017-09-21T07:28:40.475Z,14.83
2017-09-21T07:31:06.665Z,11.63
2017-09-21T07:33:32.832Z,18.37
2017-09-21T07:35:58.995Z,16.10
2017-09-21T07:38:25.162Z,17.57
2017-09-21T07:40:51.372Z,18.63
2017-09-21T07:43:17.538Z,17.83
2017-09-21T07:45:43.726Z,17.83
2017-09-21T07:48:10.278Z,17.90
2017-09-21T07:50:36.483Z,19.03
2017-09-21T07:53:02.681Z,14.77
2017-09-21T07:55:29.574Z,17.23
2017-09-21T07:57:56.088Z,18.00
2017-09-21T08:00:22.988Z,16.40
2017-09-21T08:02:49.153Z,19.60
2017-09-21T08:05:15.363Z,16.97
2017-09-21T08:07:42.254Z,17.50
2017-09-21T08:10:08.426Z,17.10
2017-09-21T08:12:34.606Z,19.20
2017-09-21T08:15:00.763Z,17.27
2017-09-21T08:17:26.914Z,15.80
2017-09-21T08:19:53.129Z,23.27
2017-09-21T08:22:19.283Z,20.80
2017-09-21T08:24:45.459Z,18.30
2017-09-21T08:27:11.637Z,19.10
2017-09-21T08:29:38.538Z,17.40
2017-09-21T08:32:04.714Z,19.00
2017-09-21T08:34:30.886Z,22.63
2017-09-21T08:36:57.141Z,19.90
2017-09-21T08:39:23.304Z,21.30
2017-09-21T08:41:49.494Z,20.37
2017-09-21T08:44:15.678Z,27.60
2017-09-21T08:46:41.819Z,32.10
2017-09-21T08:49:07.991Z,33.10
2017-09-21T08:51:34.908Z,38.43
2017-09-21T08:54:01.082Z,31.00
2017-09-21T08:56:28.452Z,33.20
2017-09-21T08:58:55.459Z,32.73
2017-09-21T09:01:21.615Z,40.83
2017-09-21T09:03:48.531Z,30.63
2017-09-21T09:06:14.703Z,32.37
2017-09-21T09:08:40.913Z,40.57
2017-09-21T09:11:07.115Z,27.37
2017-09-21T09:13:33.355Z,27.37
2017-09-21T09:15:59.573Z,35.27
2017-09-21T09:18:25.786Z,31.23
2017-09-21T09:20:51.936Z,25.20
2017-09-21T09:23:18.156Z,20.83
2017-09-21T09:25:44.314Z,28.93
2017-09-21T09:28:10.516Z,26.03
2017-09-21T09:30:36.702Z,24.80
2017-09-21T09:33:03.620Z,30.40
2017-09-21T09:35:30.559Z,27.20
2017-09-21T09:37:56.756Z,28.00
2017-09-21T09:40:22.917Z,25.70
2017-09-21T09:42:49.094Z,24.43
2017-09-21T09:45:15.266Z,20.13
2017-09-21T10:00:31.485Z,21.90
2017-09-21T10:02:57.707Z,22.80
2017-09-21T10:05:23.883Z,23.93
2017-09-21T10:07:50.083Z,26.80
2017-09-21T10:10:16.244Z,26.60
2017-09-21T10:12:42.382Z,24.00
2017-09-21T10:15:08.527Z,23.57
2017-09-21T10:17:34.697Z,28.57
2017-09-21T10:20:01.224Z,38.10
2017-09-21T10:22:27.429Z,24.80
2017-09-21T10:24:53.610Z,28.80
2017-09-21T10:27:19.806Z,30.30
2017-09-21T10:29:45.945Z,31.30
2017-09-21T10:32:12.106Z,28.90
2017-09-21T10:34:39.010Z,29.00
2017-09-21T10:37:05.381Z,28.77
2017-09-21T10:39:31.581Z,30.30
2017-09-21T10:41:57.762Z,24.40
2017-09-21T10:44:23.896Z,29.20
2017-09-21T10:46:50.054Z,30.33
2017-09-21T10:49:16.281Z,30.30
2017-09-21T10:51:42.444Z,27.00
2017-09-21T10:54:08.607Z,37.87
2017-09-21T10:56:34.888Z,35.60
2017-09-21T10:59:01.082Z,38.47
2017-09-21T11:01:27.291Z,33.43
2017-09-21T11:03:53.713Z,32.03
2017-09-21T11:06:19.883Z,36.63
2017-09-21T11:08:46.077Z,35.67
2017-09-21T11:11:12.283Z,39.80
2017-09-21T11:13:38.442Z,34.33
2017-09-21T11:16:04.655Z,37.87
2017-09-21T11:18:30.836Z,36.27
2017-09-21T11:20:57.004Z,32.33
2017-09-21T11:23:23.164Z,37.30
2017-09-21T11:25:49.322Z,30.93
2017-09-21T11:28:16.245Z,29.50
2017-09-21T11:30:42.425Z,32.50
2017-09-21T11:33:08.550Z,31.83
2017-09-21T11:35:35.480Z,34.67
2017-09-21T11:38:01.648Z,28.60
2017-09-21T11:40:27.837Z,33.87
2017-09-21T11:42:54.024Z,39.70
2017-09-21T11:45:20.230Z,30.70
2017-09-21T11:47:46.399Z,28.10
2017-09-21T11:50:12.573Z,25.97
2017-09-21T11:52:38.796Z,27.00
2017-09-21T11:55:05.353Z,29.30
2017-09-21T11:57:31.562Z,27.70
2017-09-21T11:59:57.738Z,28.20
2017-09-21T12:02:23.890Z,32.03
2017-09-21T12:04:51.195Z,28.13
2017-09-21T12:07:17.379Z,26.70
2017-09-21T12:09:44.286Z,25.27
2017-09-21T12:12:10.528Z,26.50
2017-09-21T12:14:37.414Z,21.90
2017-09-21T12:17:03.594Z,20.03
2017-09-21T12:19:29.744Z,19.80
2017-09-21T12:21:56.295Z,23.90
2017-09-21T12:24:22.521Z,15.27
2017-09-21T12:26:48.702Z,19.80
2017-09-21T12:29:14.883Z,14.60
2017-09-21T12:31:41.435Z,12.80
2017-09-21T12:34:07.591Z,14.53
2017-09-21T12:36:33.739Z,15.47
2017-09-21T12:38:59.975Z,12.73
2017-09-21T12:41:26.207Z,11.03
2017-09-21T12:43:52.766Z,14.23
2017-09-21T12:46:18.979Z,14.40
2017-09-21T12:48:45.378Z,13.10
2017-09-21T12:51:11.554Z,15.10
2017-09-21T12:53:37.730Z,13.30
2017-09-21T12:56:04.677Z,14.97
2017-09-21T12:58:30.835Z,11.47
2017-09-21T13:00:57.019Z,12.43
2017-09-21T13:03:23.156Z,15.00
2017-09-21T13:05:49.319Z,16.10
2017-09-21T13:08:15.528Z,24.90
2017-09-21T13:10:45.354Z,16.37
2017-09-21T13:13:11.945Z,14.00
2017-09-21T13:15:38.146Z,12.73
2017-09-21T13:18:05.634Z,16.73
2017-09-21T13:20:31.777Z,10.60
2017-09-21T13:22:57.914Z,13.93
2017-09-21T13:25:24.138Z,25.93
2017-09-21T13:27:50.654Z,10.50
2017-09-21T13:30:17.562Z,14.77
2017-09-21T13:32:43.775Z,15.60
2017-09-21T13:35:10.000Z,10.57
2017-09-21T13:37:36.153Z,9.93
2017-09-21T13:40:02.319Z,11.30
2017-09-21T13:42:28.518Z,12.60
2017-09-21T13:44:54.706Z,15.13
2017-09-21T13:47:20.876Z,9.60
2017-09-21T13:49:47.091Z,16.33
2017-09-21T13:52:13.262Z,11.93
2017-09-21T13:54:39.480Z,14.20
2017-09-21T13:57:05.708Z,13.47
2017-09-21T13:59:31.879Z,11.77
2017-09-21T14:01:58.038Z,10.67
2017-09-21T14:04:24.989Z,15.83
2017-09-21T14:06:51.126Z,11.80
2017-09-21T14:09:17.277Z,10.87
2017-09-21T14:11:43.444Z,8.00
2017-09-21T14:14:09.649Z,12.10
2017-09-21T14:16:35.782Z,12.40
2017-09-21T14:19:02.274Z,13.70
2017-09-21T14:21:28.450Z,14.57
2017-09-21T14:23:54.600Z,9.40
2017-09-21T14:26:21.142Z,12.97
2017-09-21T14:28:47.282Z,9.63
2017-09-21T14:31:13.454Z,11.47
2017-09-21T14:33:39.663Z,13.63
2017-09-21T14:36:05.817Z,12.60
2017-09-21T14:38:32.029Z,10.73
2017-09-21T14:40:58.262Z,10.63
2017-09-21T14:43:24.457Z,14.30
2017-09-21T14:45:50.674Z,10.30
2017-09-21T14:48:16.886Z,10.93
2017-09-21T14:50:43.059Z,14.47
2017-09-21T14:53:09.202Z,12.83
2017-09-21T14:55:35.364Z,12.90
2017-09-21T14:58:02.263Z,10.77
2017-09-21T15:00:28.515Z,21.63
2017-09-21T15:02:54.732Z,13.10
2017-09-21T15:05:22.394Z,15.17
2017-09-21T15:07:48.554Z,13.57
2017-09-21T15:10:14.760Z,9.80
2017-09-21T15:12:40.913Z,10.20
2017-09-21T15:15:07.065Z,7.90
2017-09-21T15:17:33.926Z,5.27
2017-09-21T15:20:00.149Z,5.70
2017-09-21T15:22:26.722Z,4.03
2017-09-21T15:24:52.919Z,6.20
2017-09-21T15:27:19.043Z,7.67
2017-09-21T15:29:45.223Z,3.83
2017-09-21T15:32:11.375Z,3.40
2017-09-21T15:34:38.302Z,6.43
2017-09-21T15:37:04.492Z,4.37
2017-09-21T15:39:30.686Z,3.53
2017-09-21T15:41:56.847Z,4.23
2017-09-21T15:44:23.772Z,10.60
2017-09-21T15:46:51.342Z,4.40
2017-09-21T15:49:17.527Z,4.53
2017-09-21T15:51:43.685Z,8.63
2017-09-21T15:54:10.253Z,7.10
2017-09-21T15:56:37.042Z,5.17
2017-09-21T15:59:03.268Z,5.57
2017-09-21T16:01:29.467Z,6.10
2017-09-21T16:03:55.669Z,7.00
2017-09-21T16:06:21.799Z,8.83
2017-09-21T16:08:47.946Z,7.63
2017-09-21T16:11:14.134Z,6.50
2017-09-21T16:13:40.346Z,4.73
2017-09-21T16:16:06.567Z,6.03
2017-09-21T16:18:32.721Z,9.07
2017-09-21T16:20:58.882Z,4.43
2017-09-21T16:23:26.274Z,4.73
2017-09-21T16:25:52.475Z,4.27
2017-09-21T16:28:18.670Z,5.20
2017-09-21T16:30:44.815Z,3.97
2017-09-21T16:33:11.013Z,8.97
2017-09-21T16:35:37.187Z,8.80
2017-09-21T16:38:04.286Z,5.93
2017-09-21T16:40:31.186Z,6.07
2017-09-21T16:42:57.359Z,11.00
2017-09-21T16:45:23.540Z,8.90
2017-09-21T16:47:50.117Z,14.10
2017-09-21T16:50:16.296Z,7.23
2017-09-21T16:52:42.525Z,8.60
2017-09-21T16:55:08.743Z,10.77
2017-09-21T16:57:34.912Z,7.33
2017-09-21T17:00:01.087Z,8.97
2017-09-21T17:02:27.276Z,6.97
2017-09-21T17:04:53.436Z,7.23
2017-09-21T17:07:19.776Z,6.43
2017-09-21T17:09:45.952Z,5.83
2017-09-21T17:12:13.125Z,11.97
2017-09-21T17:14:39.325Z,7.70
2017-09-21T17:17:05.578Z,9.70
2017-09-21T17:19:31.799Z,8.67
2017-09-21T17:21:58.705Z,7.63
2017-09-21T17:24:24.965Z,6.17
2017-09-21T17:26:51.158Z,7.73
2017-09-21T17:29:17.323Z,8.87
2017-09-21T17:31:43.586Z,8.07
2017-09-21T17:34:09.789Z,8.10
2017-09-21T17:36:36.710Z,7.90
2017-09-21T17:39:03.292Z,9.07
2017-09-21T17:41:30.233Z,7.63
2017-09-21T17:43:56.382Z,7.90
2017-09-21T17:46:23.365Z,8.53
2017-09-21T17:48:49.546Z,9.40
2017-09-21T17:51:16.542Z,7.37
2017-09-21T17:53:44.723Z,13.73
2017-09-21T17:56:10.910Z,8.03
2017-09-21T17:58:37.111Z,7.83
2017-09-21T18:01:03.442Z,7.53
2017-09-21T18:03:29.635Z,7.87
2017-09-21T18:05:55.809Z,9.53
2017-09-21T18:08:22.954Z,7.10
2017-09-21T18:10:50.307Z,9.13
2017-09-21T18:13:16.514Z,9.57
2017-09-21T18:15:42.745Z,10.37
2017-09-21T18:18:09.075Z,7.73
2017-09-21T18:20:35.286Z,7.60
2017-09-21T18:23:01.455Z,6.83
2017-09-21T18:25:28.492Z,9.97
2017-09-21T18:27:54.675Z,11.77
2017-09-21T18:30:20.949Z,7.67
2017-09-21T18:32:47.159Z,7.83
2017-09-21T18:35:13.348Z,9.07
2017-09-21T18:37:39.568Z,7.00
2017-09-21T18:40:06.615Z,7.50
2017-09-21T18:42:32.908Z,8.23
2017-09-21T18:44:59.128Z,6.83
2017-09-21T18:47:28.043Z,8.13
2017-09-21T18:49:55.608Z,8.00
2017-09-21T18:52:22.331Z,8.93
2017-09-21T18:54:49.283Z,10.73
2017-09-21T18:57:15.477Z,10.67
2017-09-21T18:59:41.718Z,8.47
2017-09-21T19:02:09.317Z,8.53
2017-09-21T19:04:36.395Z,9.80
2017-09-21T19:07:02.629Z,9.67
2017-09-21T19:09:28.887Z,7.83
2017-09-21T19:11:57.281Z,10.03
2017-09-21T19:14:23.589Z,8.27
2017-09-21T19:16:49.860Z,11.63
2017-09-21T19:19:16.928Z,8.27
2017-09-21T19:21:44.977Z,7.60
2017-09-21T19:24:11.178Z,7.60
2017-09-21T19:26:37.403Z,10.17
2017-09-21T19:29:04.373Z,7.37
2017-09-21T19:31:34.325Z,11.47
2017-09-21T19:34:00.673Z,10.33
2017-09-21T19:36:26.921Z,7.63
2017-09-21T19:38:53.243Z,9.17
2017-09-21T19:41:19.444Z,7.63
2017-09-21T19:43:45.887Z,10.93
2017-09-21T19:46:12.156Z,9.70
2017-09-21T19:48:38.381Z,8.93
2017-09-21T19:51:04.601Z,8.63
2017-09-21T19:53:31.767Z,9.83
2017-09-21T19:55:58.016Z,9.30
2017-09-21T19:58:27.763Z,10.23
2017-09-21T20:00:56.799Z,10.70
2017-09-21T20:03:23.868Z,9.10
2017-09-21T20:05:50.087Z,10.30
2017-09-21T20:08:16.612Z,10.17
2017-09-21T20:10:42.848Z,8.90
2017-09-21T20:13:09.324Z,11.67
2017-09-21T20:15:35.527Z,12.37
2017-09-21T20:18:01.945Z,11.50
2017-09-21T20:20:28.142Z,11.30
2017-09-21T20:22:54.610Z,11.27
2017-09-21T20:25:21.249Z,10.90
2017-09-21T20:27:47.475Z,8.13
2017-09-21T20:30:13.748Z,7.80
2017-09-21T20:32:39.979Z,9.87
2017-09-21T20:35:06.143Z,14.10
2017-09-21T20:37:32.355Z,8.00
2017-09-21T20:39:58.573Z,11.50
2017-09-21T20:42:24.746Z,9.37
2017-09-21T20:44:50.957Z,8.70
2017-09-21T20:47:17.215Z,12.80
2017-09-21T20:49:43.403Z,13.63
2017-09-21T20:52:09.631Z,8.73
2017-09-21T20:54:35.835Z,8.97
2017-09-21T20:57:02.813Z,8.73
2017-09-21T20:59:29.112Z,10.10
2017-09-21T21:01:56.267Z,10.70
2017-09-21T21:04:22.415Z,9.87
2017-09-21T21:06:49.072Z,9.30
2017-09-21T21:09:15.222Z,11.30
2017-09-21T21:11:42.158Z,9.30
2017-09-21T21:14:08.362Z,8.60
2017-09-21T21:16:34.516Z,12.70
2017-09-21T21:19:00.706Z,8.83
2017-09-21T21:21:26.914Z,8.60
2017-09-21T21:23:53.096Z,8.00
2017-09-21T21:26:19.298Z,7.43
2017-09-21T21:28:45.513Z,10.67
2017-09-21T21:31:11.771Z,12.00
2017-09-21T21:33:37.945Z,9.33
2017-09-21T21:36:04.207Z,9.80
2017-09-21T21:38:30.506Z,12.80
2017-09-21T21:40:57.439Z,11.50
2017-09-21T21:43:25.140Z,7.80
2017-09-21T21:45:51.335Z,11.13
2017-09-21T21:48:18.271Z,10.67
2017-09-21T21:50:44.419Z,10.87
2017-09-21T21:53:11.591Z,12.03
2017-09-21T21:55:37.814Z,9.53
2017-09-21T21:58:04.749Z,10.60
2017-09-21T22:00:31.697Z,8.67
2017-09-21T22:02:58.646Z,8.20
2017-09-21T22:05:25.547Z,10.27
2017-09-21T22:07:51.773Z,8.30
2017-09-21T22:10:17.971Z,9.30
2017-09-21T22:12:44.136Z,8.43
2017-09-21T22:15:10.306Z,9.40
2017-09-21T22:17:36.458Z,11.03
2017-09-21T22:20:02.795Z,13.10
2017-09-21T22:22:28.973Z,11.60
2017-09-21T22:24:55.164Z,9.27
2017-09-21T22:27:22.002Z,9.67
2017-09-21T22:29:48.222Z,8.07
2017-09-21T22:32:14.553Z,12.00
2017-09-21T22:34:40.751Z,8.27
2017-09-21T22:37:06.954Z,8.17
2017-09-21T22:39:33.425Z,10.60
2017-09-21T22:41:59.657Z,10.47
2017-09-21T22:44:26.833Z,7.57
2017-09-21T22:46:53.446Z,9.47
2017-09-21T22:49:19.776Z,12.43
2017-09-21T22:51:48.334Z,10.97
2017-09-21T22:54:16.363Z,10.30
2017-09-21T22:56:42.637Z,10.87
2017-09-21T22:59:09.640Z,9.93
2017-09-21T23:01:35.826Z,11.83
2017-09-21T23:04:02.724Z,8.00
2017-09-21T23:06:28.893Z,10.57
2017-09-21T23:08:55.862Z,13.50
2017-09-21T23:11:22.238Z,9.27
2017-09-21T23:13:48.422Z,8.90
2017-09-21T23:16:14.587Z,8.03
2017-09-21T23:18:40.783Z,9.60
2017-09-21T23:21:06.954Z,10.37
2017-09-21T23:23:33.147Z,6.93
2017-09-21T23:25:59.285Z,9.10
2017-09-21T23:28:25.478Z,8.10
2017-09-21T23:30:52.128Z,9.63
2017-09-21T23:33:18.304Z,10.53
2017-09-21T23:35:44.487Z,7.87
2017-09-21T23:38:10.685Z,7.63
2017-09-21T23:40:37.574Z,7.73
2017-09-21T23:43:03.743Z,7.63
2017-09-21T23:45:30.935Z,7.30
2017-09-21T23:47:57.113Z,10.40
2017-09-21T23:50:23.321Z,11.93
2017-09-21T23:52:49.558Z,10.50
2017-09-21T23:55:15.874Z,10.13
2017-09-21T23:57:42.087Z,7.60
